Time;durP1;ratioP1;P1;durP2;ratioP2;P2;SDS_P1;SDS_P2;PMS_P1;PMS_P2;Temp;Humidity;BMP_temperature;BMP_pressure;BME280_temperature;BME280_humidity;BME280_pressure;Samples;Min_cycle;Max_cycle;Signal;HPM_P1;HPM_P2
2021/06/22 00:01:50;;;;;;;1.00;0.77;;;;;;;;;;4916945;29;20035;-91
2021/06/22 00:04:16;;;;;;;2.70;0.85;;;;;;;;;;4915677;29;20012;-91
2021/06/22 00:06:42;;;;;;;2.05;0.57;;;;;;;;;;4916699;29;20043;-92
2021/06/22 00:09:08;;;;;;;2.72;0.75;;;;;;;;;;4916600;29;20020;-91
2021/06/22 00:11:34;;;;;;;1.55;0.60;;;;;;;;;;4915246;29;20035;-91
2021/06/22 00:14:01;;;;;;;0.60;0.57;;;;;;;;;;4916327;29;20381;-92
2021/06/22 00:16:27;;;;;;;1.35;0.65;;;;;;;;;;4916372;29;20649;-91
2021/06/22 00:18:53;;;;;;;1.27;0.85;;;;;;;;;;4915083;29;20071;-91
2021/06/22 00:21:19;;;;;;;1.15;0.80;;;;;;;;;;4904057;29;20058;-92
2021/06/22 00:23:45;;;;;;;0.47;0.47;;;;;;;;;;4919239;29;20075;-91
2021/06/22 00:26:11;;;;;;;1.15;0.70;;;;;;;;;;4935568;29;20512;-92
2021/06/22 00:28:37;;;;;;;1.13;0.70;;;;;;;;;;4927231;29;20027;-92
2021/06/22 00:31:03;;;;;;;0.90;0.65;;;;;;;;;;4923301;29;20058;-91
2021/06/22 00:33:29;;;;;;;1.58;0.60;;;;;;;;;;4926058;29;20016;-92
2021/06/22 00:35:55;;;;;;;1.23;1.00;;;;;;;;;;4926187;29;20097;-93
2021/06/22 00:38:21;;;;;;;2.35;1.52;;;;;;;;;;4921256;29;20031;-94
2021/06/22 00:40:47;;;;;;;1.70;1.13;;;;;;;;;;4935294;29;20039;-91
2021/06/22 00:43:13;;;;;;;4.70;1.48;;;;;;;;;;4930260;29;20055;-92
2021/06/22 00:45:39;;;;;;;1.50;1.13;;;;;;;;;;4931860;29;20067;-93
2021/06/22 00:48:05;;;;;;;1.70;1.40;;;;;;;;;;4950035;29;20032;-92
2021/06/22 00:50:32;;;;;;;6.05;1.30;;;;;;;;;;4949770;29;20031;-92
2021/06/22 00:52:58;;;;;;;2.85;1.92;;;;;;;;;;4935311;29;20088;-91
2021/06/22 00:55:30;;;;;;;3.63;2.00;;;;;;;;;;4949634;28;20654;-92
2021/06/22 00:57:59;;;;;;;4.60;2.38;;;;;;;;;;4943245;29;20102;-92
2021/06/22 01:00:25;;;;;;;9.85;3.47;;;;;;;;;;4949864;29;20078;-92
2021/06/22 01:02:51;;;;;;;3.75;2.20;;;;;;;;;;4933936;29;20035;-91
2021/06/22 01:05:17;;;;;;;1.65;0.60;;;;;;;;;;4936984;29;20035;-92
2021/06/22 01:07:43;;;;;;;3.28;1.17;;;;;;;;;;4938611;29;20031;-92
2021/06/22 01:10:10;;;;;;;4.13;2.33;;;;;;;;;;4957230;29;20079;-91
2021/06/22 01:12:36;;;;;;;4.57;2.47;;;;;;;;;;4947201;28;20401;-92
2021/06/22 01:15:02;;;;;;;3.95;2.00;;;;;;;;;;4954491;28;20020;-91
2021/06/22 01:17:29;;;;;;;1.98;1.38;;;;;;;;;;4953155;29;20039;-91
2021/06/22 01:19:54;;;;;;;1.20;1.00;;;;;;;;;;4938724;29;20128;-92
2021/06/22 01:22:20;;;;;;;1.38;0.88;;;;;;;;;;4938267;29;20119;-93
2021/06/22 01:24:46;;;;;;;0.65;0.60;;;;;;;;;;4953676;29;20024;-92
2021/06/22 01:27:13;;;;;;;1.45;1.08;;;;;;;;;;4953874;28;20031;-92
2021/06/22 01:29:39;;;;;;;1.98;1.00;;;;;;;;;;4937978;29;20063;-91
2021/06/22 01:32:07;;;;;;;0.65;0.60;;;;;;;;;;4938636;29;20034;-92
2021/06/22 01:34:34;;;;;;;2.10;1.08;;;;;;;;;;4953281;29;20028;-91
2021/06/22 01:37:00;;;;;;;1.38;1.00;;;;;;;;;;4953118;29;20143;-92
2021/06/22 01:39:26;;;;;;;2.67;0.90;;;;;;;;;;4962098;28;20067;-91
2021/06/22 01:41:52;;;;;;;4.93;0.90;;;;;;;;;;4967535;28;20659;-92
2021/06/22 01:44:19;;;;;;;2.00;0.80;;;;;;;;;;4953217;29;20079;-91
2021/06/22 01:46:45;;;;;;;3.25;0.80;;;;;;;;;;4937899;29;20056;-92
2021/06/22 01:49:11;;;;;;;1.58;0.88;;;;;;;;;;4944244;29;20023;-90
2021/06/22 01:51:37;;;;;;;1.25;0.73;;;;;;;;;;4948220;29;20036;-91
2021/06/22 01:54:03;;;;;;;1.60;0.73;;;;;;;;;;4951219;29;20119;-92
2021/06/22 01:56:31;;;;;;;0.88;0.77;;;;;;;;;;4936662;29;20040;-91
2021/06/22 01:58:59;;;;;;;1.88;0.70;;;;;;;;;;4954873;29;20023;-94
2021/06/22 02:01:25;;;;;;;1.40;0.98;;;;;;;;;;4956032;29;20039;-91
2021/06/22 02:03:51;;;;;;;1.35;0.68;;;;;;;;;;4942886;28;20375;-92
2021/06/22 02:06:17;;;;;;;1.98;1.05;;;;;;;;;;4936107;29;20028;-91
2021/06/22 02:08:43;;;;;;;1.90;1.05;;;;;;;;;;4936866;29;20043;-90
2021/06/22 02:11:09;;;;;;;0.40;0.40;;;;;;;;;;4939114;29;20404;-93
2021/06/22 02:13:35;;;;;;;1.20;0.82;;;;;;;;;;4938557;29;20156;-91
2021/06/22 02:16:01;;;;;;;1.15;0.77;;;;;;;;;;4966461;28;20042;-90
2021/06/22 02:18:27;;;;;;;0.90;0.75;;;;;;;;;;4960216;28;20024;-91
2021/06/22 02:20:53;;;;;;;2.83;1.10;;;;;;;;;;4937182;29;20031;-91
2021/06/22 02:23:19;;;;;;;0.80;0.68;;;;;;;;;;4937859;29;20023;-91
2021/06/22 02:25:46;;;;;;;2.95;1.00;;;;;;;;;;4951921;29;20110;-93
2021/06/22 02:28:13;;;;;;;0.98;0.60;;;;;;;;;;4952184;28;20387;-90
2021/06/22 02:30:39;;;;;;;;;;;18.40;60.30;;;;;;4951769;28;20054;-92
2021/06/22 02:33:06;;;;;;;4.50;0.95;;;;;;;;;;4937674;29;19914;-93
2021/06/22 02:35:35;;;;;;;1.05;0.60;;;;;;;;;;4951601;29;20035;-92
2021/06/22 02:38:01;;;;;;;1.10;0.60;;;;;;;;;;4937195;29;20043;-91
2021/06/22 02:40:30;;;;;;;1.70;0.85;;;;;;;;;;4936731;29;20043;-92
2021/06/22 02:42:56;;;;;;;0.80;0.45;;;;;;;;;;4936405;29;20027;-91
2021/06/22 02:45:23;;;;;;;6.25;0.75;;;;;;;;;;4945362;29;20106;-91
2021/06/22 02:47:49;;;;;;;1.35;0.80;;;;;;;;;;4950341;28;20032;-91
2021/06/22 02:50:16;;;;;;;4.97;0.70;;;;;;;;;;4937166;29;20114;-91
2021/06/22 02:52:42;;;;;;;0.47;0.45;;;;;;;;;;4936499;29;20035;-92
2021/06/22 02:55:18;;;;;;;1.30;0.80;;;;;;;;;;4947398;29;20041;-91
2021/06/22 02:57:45;;;;;;;2.58;0.77;;;;;;;;;;4949877;28;20058;-92
2021/06/22 03:00:11;;;;;;;2.10;0.77;;;;;;;;;;4949871;28;20173;-92
2021/06/22 03:02:37;;;;;;;0.68;0.68;;;;;;;;;;4951532;29;24309;-91
2021/06/22 03:05:04;;;;;;;1.00;0.65;;;;;;;;;;4951868;29;20034;-91
2021/06/22 03:07:30;;;;;;;3.25;0.52;;;;;;;;;;4934921;28;20083;-92
2021/06/22 03:09:56;;;;;;;1.30;0.60;;;;;;;;;;4946299;28;20458;-91
2021/06/22 03:12:22;;;;;;;0.82;0.75;;;;;;;;;;4953134;28;20031;-94
2021/06/22 03:14:48;;;;;;;1.60;1.08;;;;;;;;;;4941246;29;20032;-92
2021/06/22 03:17:14;;;;;;;1.13;0.68;;;;;;;;;;4951096;29;20038;-91
2021/06/22 03:19:40;;;;;;;0.95;0.70;;;;;;;;;;4936335;29;20485;-92
2021/06/22 03:22:06;;;;;;;0.70;0.70;;;;;;;;;;4966047;28;20054;-92
2021/06/22 03:24:32;;;;;;;0.60;0.40;;;;;;;;;;4945329;29;20028;-90
2021/06/22 03:26:58;;;;;;;1.00;0.60;;;;;;;;;;4950973;29;20035;-91
2021/06/22 03:29:25;;;;;;;1.52;0.65;;;;;;;;;;4951331;29;20027;-90
2021/06/22 03:31:51;;;;;;;1.08;0.60;;;;;;;;;;4936896;29;20045;-91
2021/06/22 03:34:17;;;;;;;0.68;0.50;;;;;;;;;;4936148;29;20043;-92
2021/06/22 03:36:43;;;;;;;0.75;0.70;;;;;;;;;;4935997;29;20032;-91
2021/06/22 03:39:09;;;;;;;1.00;0.90;;;;;;;;;;4958355;28;20030;-93
2021/06/22 03:41:36;;;;;;;0.90;0.50;;;;;;;;;;4951900;29;20043;-93
2021/06/22 03:44:02;;;;;;;4.23;1.33;;;;;;;;;;4935041;29;20032;-91
2021/06/22 03:46:28;;;;;;;1.27;0.70;;;18.40;59.50;;;;;;4963495;28;20295;-91
2021/06/22 03:48:54;;;;;;;0.95;0.50;;;;;;;;;;4942510;28;20024;-91
2021/06/22 03:51:20;;;;;;;18.60;1.17;;;;;;;;;;4944791;29;20027;-92
2021/06/22 03:53:48;;;;;;;1.65;0.80;;;;;;;;;;4951478;28;20047;-91
2021/06/22 03:56:14;;;;;;;0.77;0.73;;;;;;;;;;4917335;29;20038;-90
2021/06/22 03:58:40;;;;;;;7.50;1.95;;;;;;;;;;4954804;28;20653;-90
2021/06/22 04:01:06;;;;;;;1.75;0.73;;;;;;;;;;4950537;28;20135;-92
2021/06/22 04:03:32;;;;;;;0.98;0.60;;;;;;;;;;4935600;29;20020;-92
2021/06/22 04:05:58;;;;;;;1.35;1.25;;;;;;;;;;4950707;28;20500;-90
2021/06/22 04:08:24;;;;;;;3.95;1.13;;;;;;;;;;4950482;29;20020;-92
2021/06/22 04:10:50;;;;;;;4.65;1.00;;;;;;;;;;4950763;29;20036;-91
2021/06/22 04:13:16;;;;;;;0.63;0.50;;;;;;;;;;4935466;29;20036;-92
2021/06/22 04:15:42;;;;;;;0.85;0.82;;;;;;;;;;4946962;29;20032;-92
2021/06/22 04:18:09;;;;;;;0.80;0.50;;;;;;;;;;4935595;29;20118;-91
2021/06/22 04:20:37;;;;;;;0.85;0.52;;;18.40;59.60;;;;;;4950216;29;20043;-91
2021/06/22 04:23:04;;;;;;;4.30;0.77;;;18.40;60.00;;;;;;4950765;29;20516;-91
2021/06/22 04:25:30;;;;;;;2.65;0.75;;;;;;;;;;4939525;29;20501;-91
2021/06/22 04:27:56;;;;;;;12.68;1.38;;;;;;;;;;4950343;28;20082;-92
2021/06/22 04:30:23;;;;;;;0.70;0.70;;;;;;;;;;4950237;28;20031;-91
2021/06/22 04:32:49;;;;;;;3.65;0.63;;;;;;;;;;4950489;29;20015;-91
2021/06/22 04:35:15;;;;;;;0.60;0.60;;;;;;;;;;4950427;29;20119;-91
2021/06/22 04:37:41;;;;;;;7.45;0.82;;;;;;;;;;4949831;29;20028;-91
2021/06/22 04:40:08;;;;;;;1.17;0.60;;;;;;;;;;4944783;29;20035;-92
2021/06/22 04:42:34;;;;;;;1.87;1.00;;;;;;;;;;4948046;28;20043;-91
2021/06/22 04:45:00;;;;;;;1.15;0.80;;;;;;;;;;4954227;28;20875;-91
2021/06/22 04:47:26;;;;;;;1.42;0.85;;;;;;;;;;4950199;29;20035;-90
2021/06/22 04:49:52;;;;;;;0.82;0.52;;;;;;;;;;4935678;29;20035;-91
2021/06/22 04:52:18;;;;;;;1.23;0.82;;;;;;;;;;4938358;28;20036;-92
2021/06/22 04:54:44;;;;;;;0.65;0.50;;;;;;;;;;4942555;28;20028;-92
2021/06/22 04:57:12;;;;;;;1.23;0.80;;;;;;;;;;4942537;29;20038;-92
2021/06/22 04:59:38;;;;;;;1.00;0.80;;;;;;;;;;4951638;28;20046;-91
2021/06/22 05:02:04;;;;;;;1.92;1.13;;;;;;;;;;4935424;29;20024;-92
2021/06/22 05:04:31;;;;;;;1.70;0.82;;;;;;;;;;4934959;29;20548;-90
2021/06/22 05:06:58;;;;;;;0.80;0.53;;;;;;;;;;4935061;29;20032;-92
2021/06/22 05:09:24;;;;;;;1.20;0.98;;;;;;;;;;4935261;29;20024;-91
2021/06/22 05:11:50;;;;;;;1.25;0.70;;;;;;;;;;4945669;28;20925;-92
2021/06/22 05:14:16;;;;;;;1.25;0.85;;;;;;;;;;4949941;29;20043;-91
2021/06/22 05:16:43;;;;;;;3.55;1.13;;;;;;;;;;4949442;29;20039;-91
2021/06/22 05:19:09;;;;;;;0.80;0.68;;;;;;;;;;4931350;29;20028;-82
2021/06/22 05:21:35;;;;;;;2.80;0.77;;;;;;;;;;4929560;28;20122;-82
2021/06/22 05:24:00;;;;;;;7.57;1.05;;;;;;;;;;4930034;28;20020;-83
2021/06/22 05:26:26;;;;;;;0.60;0.50;;;;;;;;;;4928026;29;20131;-83
2021/06/22 05:28:53;;;;;;;4.35;0.82;;;;;;;;;;4940452;29;20643;-83
2021/06/22 05:31:19;;;;;;;1.33;1.23;;;;;;;;;;4928582;29;20028;-82
2021/06/22 05:33:45;;;;;;;1.08;0.80;;;;;;;;;;4926482;29;20058;-83
2021/06/22 05:36:11;;;;;;;1.10;0.77;;;;;;;;;;4927202;28;20604;-82
2021/06/22 05:38:37;;;;;;;1.73;0.82;;;;;;;;;;4929066;29;20036;-82
2021/06/22 05:41:03;;;;;;;1.85;0.85;;;;;;;;;;4929539;29;20051;-82
2021/06/22 05:43:29;;;;;;;1.58;0.88;;;;;;;;;;4927758;29;20067;-82
2021/06/22 05:45:55;;;;;;;1.70;1.02;;;;;;;;;;4928455;29;20138;-83
2021/06/22 05:48:21;;;;;;;1.80;0.85;;;;;;;;;;4928414;29;20437;-83
2021/06/22 05:50:47;;;;;;;1.77;1.23;;;;;;;;;;4944555;28;20036;-83
2021/06/22 05:53:13;;;;;;;2.03;1.00;;;;;;;;;;4947389;29;20024;-82
2021/06/22 05:55:39;;;;;;;3.22;0.88;;;;;;;;;;4947743;29;20031;-81
2021/06/22 05:58:05;;;;;;;0.98;0.85;;;;;;;;;;4931171;29;20079;-82
2021/06/22 06:00:33;;;;;;;3.42;1.00;;;19.10;58.70;;;;;;4945321;28;20040;-82
2021/06/22 06:02:59;;;;;;;2.58;1.30;;;;;;;;;;4932339;28;20039;-81
2021/06/22 06:05:25;;;;;;;1.45;0.80;;;;;;;;;;4931642;29;20035;-82
2021/06/22 06:07:51;;;;;;;1.25;0.90;;;19.30;58.90;;;;;;4932443;29;20393;-82
2021/06/22 06:10:18;;;;;;;2.55;1.05;;;;;;;;;;4932039;29;20074;-82
2021/06/22 06:12:44;;;;;;;1.58;1.08;;;;;;;;;;4931484;29;20032;-83
2021/06/22 06:15:11;;;;;;;1.83;0.90;;;;;;;;;;4931788;29;20042;-82
2021/06/22 06:17:37;;;;;;;2.72;1.15;;;;;;;;;;4931260;29;20127;-82
2021/06/22 06:20:06;;;;;;;1.45;1.10;;;20.50;54.10;;;;;;4946576;29;20086;-83
2021/06/22 06:22:32;;;;;;;2.17;1.05;;;;;;;;;;4946431;29;20118;-82
2021/06/22 06:25:01;;;;;;;2.30;1.25;;;;;;;;;;4931521;29;20883;-83
2021/06/22 06:27:48;;;;;;;2.38;1.48;;;;;;;;;;4930884;29;20148;-82
2021/06/22 06:30:17;;;;;;;4.47;1.58;;;;;;;;;;4944419;29;20119;-82
2021/06/22 06:32:43;;;;;;;4.13;1.75;;;;;;;;;;4928571;29;20823;-80
2021/06/22 06:35:09;;;;;;;13.43;5.93;;;;;;;;;;4928869;29;20031;-79
2021/06/22 06:37:35;;;;;;;8.68;4.53;;;;;;;;;;4944779;28;20034;-80
2021/06/22 06:40:01;;;;;;;2.72;1.73;;;;;;;;;;4930161;29;20039;-79
2021/06/22 06:42:27;;;;;;;9.88;2.88;;;;;;;;;;4929833;29;20475;-79
2021/06/22 06:44:53;;;;;;;6.53;2.15;;;;;;;;;;4930069;29;20038;-79
2021/06/22 06:47:19;;;;;;;3.38;1.70;;;;;;;;;;4931345;29;20035;-80
2021/06/22 06:49:45;;;;;;;1.35;0.88;;;;;;;;;;4930330;29;20024;-80
2021/06/22 06:52:11;;;;;;;1.00;0.85;;;;;;;;;;4929857;29;20032;-80
2021/06/22 06:54:38;;;;;;;2.45;0.77;;;;;;;;;;4928815;29;20028;-79
2021/06/22 06:57:04;;;;;;;3.50;1.25;;;28.40;49.70;;;;;;4928307;29;20435;-79
2021/06/22 06:59:30;;;;;;;0.90;0.40;;;;;;;;;;4929642;29;20046;-80
2021/06/22 07:01:56;;;;;;;2.25;0.95;;;;;;;;;;4931356;29;20456;-79
2021/06/22 07:04:22;;;;;;;1.70;1.10;;;;;;;;;;4929718;29;20019;-81
2021/06/22 07:06:48;;;;;;;12.83;1.30;;;;;;;;;;4944177;29;20089;-79
2021/06/22 07:09:14;;;;;;;0.97;0.60;;;;;;;;;;4928747;29;20056;-80
2021/06/22 07:11:40;;;;;;;0.75;0.40;;;;;;;;;;4928651;29;20284;-79
2021/06/22 07:14:06;;;;;;;3.42;0.88;;;;;;;;;;4930527;29;20059;-80
2021/06/22 07:16:33;;;;;;;1.70;0.30;;;;;;;;;;4929598;29;20508;-79
2021/06/22 07:18:59;;;;;;;4.20;0.57;;;;;;;;;;4936288;29;20038;-80
2021/06/22 07:21:25;;;;;;;1.45;0.40;;;;;;;;;;4928381;29;20070;-81
2021/06/22 07:23:52;;;;;;;0.47;0.20;;;;;;;;;;4929971;29;20047;-80
2021/06/22 07:26:18;;;;;;;1.65;0.40;;;;;;;;;;4930452;29;20274;-79
2021/06/22 07:28:45;;;;;;;1.77;0.40;;;;;;;;;;4929589;29;20023;-80
2021/06/22 07:31:14;;;;;;;1.45;0.40;;;;;;;;;;4928420;29;20031;-79
2021/06/22 07:33:40;;;;;;;2.80;0.88;;;;;;;;;;4927851;29;20035;-79
2021/06/22 07:36:09;;;;;;;0.40;0.32;;;;;;;;;;4929985;28;20032;-83
2021/06/22 07:38:35;;;;;;;2.40;0.45;;;35.70;20.70;;;;;;4945104;29;20495;-83
2021/06/22 07:41:02;;;;;;;0.70;0.40;;;;;;;;;;4930084;29;20483;-84
2021/06/22 07:43:28;;;;;;;0.70;0.30;;;;;;;;;;4928182;29;20046;-84
2021/06/22 07:45:54;;;;;;;0.45;0.20;;;;;;;;;;4927911;29;20067;-84
2021/06/22 07:48:20;;;;;;;1.13;0.40;;;;;;;;;;4928189;29;20028;-83
2021/06/22 07:50:46;;;;;;;0.77;0.43;;;;;;;;;;4927371;29;20558;-83
2021/06/22 07:53:12;;;;;;;3.97;0.28;;;;;;;;;;4931983;29;20024;-83
2021/06/22 07:55:38;;;;;;;1.58;0.43;;;;;;;;;;4929426;29;20043;-83
2021/06/22 07:58:04;;;;;;;1.23;0.15;;;;;;;;;;4926603;29;20059;-85
2021/06/22 08:02:57;;;;;;;1.58;0.85;;;;;;;;;;4931597;29;20063;-84
2021/06/22 08:05:23;;;;;;;0.65;0.28;;;;;;;;;;4931343;29;20031;-83
2021/06/22 08:07:49;;;;;;;0.68;0.30;;;;;;;;;;4927806;29;20486;-83
2021/06/22 08:10:15;;;;;;;0.50;0.20;;;;;;;;;;4927887;29;20027;-84
2021/06/22 08:12:41;;;;;;;0.77;0.40;;;;;;;;;;4928358;29;20042;-85
2021/06/22 08:15:08;;;;;;;2.00;0.20;;;;;;;;;;4927761;29;20766;-84
2021/06/22 08:17:34;;;;;;;0.63;0.20;;;;;;;;;;4929128;29;20066;-84
2021/06/22 08:20:00;;;;;;;0.17;0.10;;;;;;;;;;4912696;29;20051;-85
2021/06/22 08:22:27;;;;;;;0.85;0.40;;;;;;;;;;4927461;29;20058;-84
2021/06/22 08:24:53;;;;;;;0.90;0.35;;;;;;;;;;4928100;29;20102;-85
2021/06/22 08:27:19;;;;;;;0.20;0.00;;;;;;;;;;4928411;29;20031;-84
2021/06/22 08:29:45;;;;;;;4.03;0.30;;;;;;;;;;4918910;29;20044;-85
2021/06/22 08:32:11;;;;;;;0.98;0.30;;;;;;;;;;4931680;29;20110;-84
2021/06/22 08:34:37;;;;;;;0.73;0.20;;;;;;;;;;4924192;29;20032;-85
2021/06/22 08:37:03;;;;;;;4.25;0.32;;;;;;;;;;4928116;29;20512;-84
2021/06/22 08:39:29;;;;;;;1.40;0.38;;;;;;;;;;4929585;29;20035;-88
2021/06/22 08:41:55;;;;;;;3.00;0.30;;;;;;;;;;4933214;29;20059;-89
2021/06/22 08:44:24;;;;;;;2.85;0.52;;;;;;;;;;4946348;29;20038;-87
2021/06/22 08:46:50;;;;;;;1.75;0.40;;;35.40;18.20;;;;;;4930340;29;20203;-89
2021/06/22 08:49:16;;;;;;;;;;;35.80;18.50;;;;;;4950011;29;20114;-88
2021/06/22 08:51:43;;;;;;;0.28;0.10;;;36.40;17.60;;;;;;4933324;29;19954;-87
2021/06/22 08:54:09;;;;;;;0.10;0.10;;;;;;;;;;4933891;29;20028;-86
2021/06/22 08:56:35;;;;;;;;;;;37.40;16.60;;;;;;4931311;29;20032;-88
2021/06/22 08:59:02;;;;;;;;;;;37.80;16.40;;;;;;4931771;29;19954;-86
2021/06/22 09:01:29;;;;;;;0.10;0.10;;;38.30;16.40;;;;;;4928765;29;20616;-86
2021/06/22 09:03:55;;;;;;;0.28;0.13;;;;;;;;;;4930879;29;20091;-87
2021/06/22 09:06:25;;;;;;;1.02;0.20;;;;;;;;;;4928223;29;20031;-87
2021/06/22 09:08:52;;;;;;;0.60;0.20;;;38.20;15.10;;;;;;4923781;29;20035;-86
2021/06/22 09:11:19;;;;;;;0.82;0.10;;;;;;;;;;4934474;29;20036;-91
2021/06/22 09:14:06;;;;;;;0.60;0.30;;;36.00;17.20;;;;;;4916165;29;20584;-86
2021/06/22 09:16:32;;;;;;;0.52;0.10;;;35.30;18.20;;;;;;4941287;28;20036;-87
2021/06/22 09:19:04;;;;;;;2.42;0.20;;;35.00;18.00;;;;;;4942398;29;20071;-86
2021/06/22 09:21:41;;;;;;;0.22;0.13;;;35.70;16.60;;;;;;4932490;29;20557;-85
2021/06/22 09:24:16;;;;;;;0.20;0.10;;;36.30;17.10;;;;;;4928397;29;20027;-88
2021/06/22 09:26:45;;;;;;;0.75;0.10;;;37.00;15.80;;;;;;4931930;29;20032;-89
2021/06/22 09:29:13;;;;;;;1.10;0.20;;;37.80;15.50;;;;;;4936086;29;20523;-86
2021/06/22 09:32:06;;;;;;;0.45;0.10;;;37.80;15.50;;;;;;4935440;29;20035;-85
2021/06/22 09:34:32;;;;;;;2.55;0.75;;;;;;;;;;4937188;29;20134;-87
2021/06/22 09:37:07;;;;;;;0.47;0.30;;;;;;;;;;4935080;29;20163;-88
2021/06/22 09:39:33;;;;;;;0.55;0.10;;;;;;;;;;4935466;29;20042;-88
2021/06/22 09:41:59;;;;;;;0.20;0.15;;;;;;;;;;4949456;29;20035;-87
2021/06/22 09:44:34;;;;;;;0.30;0.10;;;38.50;14.60;;;;;;4950812;29;20036;-88
2021/06/22 09:47:02;;;;;;;4.55;0.25;;;38.50;14.40;;;;;;4948350;29;20055;-88
2021/06/22 09:49:32;;;;;;;0.20;0.10;;;38.20;14.30;;;;;;4932527;29;20031;-88
2021/06/22 09:52:10;;;;;;;0.95;0.20;;;;;;;;;;4931743;29;20095;-85
2021/06/22 09:54:45;;;;;;;0.03;0.00;;;;;;;;;;4949949;28;20042;-86
2021/06/22 09:57:14;;;;;;;0.38;0.10;;;;;;;;;;4945416;28;20046;-82
2021/06/22 10:00:05;;;;;;;1.98;0.10;;;37.00;21.10;;;;;;4931166;29;20043;-81
2021/06/22 10:02:47;;;;;;;0.22;0.03;;;;;;;;;;4929506;29;20497;-81
2021/06/22 10:05:16;;;;;;;3.60;0.20;;;36.90;15.80;;;;;;4933025;29;20082;-85
2021/06/22 10:07:42;;;;;;;0.82;0.20;;;;;;;;;;4946374;28;20040;-85
2021/06/22 10:10:08;;;;;;;0.03;0.00;;;;;;;;;;4930770;29;20034;-85
2021/06/22 10:12:41;;;;;;;0.57;0.10;;;38.20;15.70;;;;;;4929856;29;20054;-84
2021/06/22 10:15:07;;;;;;;1.83;0.20;;;;;;;;;;4932487;29;20066;-85
2021/06/22 10:17:33;;;;;;;0.65;0.05;;;;;;;;;;4931715;29;20473;-84
2021/06/22 10:20:01;;;;;;;1.20;0.08;;;39.30;13.00;;;;;;4933666;29;20035;-85
2021/06/22 10:22:31;;;;;;;0.90;0.70;;;39.30;14.20;;;;;;4927984;28;20031;-85
2021/06/22 10:24:59;;;;;;;0.95;0.10;;;39.80;13.40;;;;;;4930441;29;20110;-85
2021/06/22 10:27:26;;;;;;;0.10;0.10;;;38.20;12.20;;;;;;4929781;29;20031;-85
2021/06/22 10:29:53;;;;;;;0.38;0.20;;;40.30;12.30;;;;;;4932411;29;20035;-83
2021/06/22 10:32:20;;;;;;;0.20;0.03;;;;;;;;;;4933226;29;20034;-85
2021/06/22 10:34:50;;;;;;;0.20;0.00;;;40.70;12.10;;;;;;4931814;29;20469;-84
2021/06/22 10:37:42;;;;;;;4.03;0.10;;;41.10;12.20;;;;;;4928665;29;20055;-85
2021/06/22 10:40:31;;;;;;;0.10;0.05;;;41.10;11.40;;;;;;4930852;29;20071;-84
2021/06/22 10:43:01;;;;;;;0.32;0.10;;;;;;;;;;4929600;29;20087;-85
2021/06/22 10:45:28;;;;;;;0.20;0.00;;;;;;;;;;4929024;29;20401;-84
2021/06/22 10:47:59;;;;;;;0.60;0.10;;;40.50;12.40;;;;;;4928385;29;21201;-83
2021/06/22 10:50:25;;;;;;;0.80;0.40;;;;;;;;;;4947019;29;20024;-86
2021/06/22 10:52:53;;;;;;;0.88;0.00;;;;;;;;;;4945441;29;20047;-85
2021/06/22 10:55:22;;;;;;;0.55;0.10;;;;;;;;;;4931279;29;20068;-85
2021/06/22 10:57:54;;;;;;;0.30;0.20;;;;;;;;;;4932070;29;20039;-84
2021/06/22 11:00:20;;;;;;;0.30;0.05;;;;;;;;;;4931196;29;20126;-84
2021/06/22 11:03:02;;;;;;;4.40;0.57;;;32.70;19.60;;;;;;4946284;29;20039;-85
2021/06/22 11:05:29;;;;;;;0.40;0.20;;;;;;;;;;4929435;29;20031;-85
2021/06/22 11:08:13;;;;;;;2.38;0.40;;;;;;;;;;4932030;29;20119;-86
2021/06/22 11:10:48;;;;;;;0.60;0.10;;;;;;;;;;4929646;28;20054;-84
2021/06/22 11:13:39;;;;;;;0.57;0.35;;;32.70;19.70;;;;;;4944294;28;20609;-84
2021/06/22 11:16:21;;;;;;;0.50;0.30;;;32.80;20.80;;;;;;4929537;29;20060;-85
2021/06/22 11:21:20;;;;;;;3.70;1.48;;;;;;;;;;4931399;29;20036;-85
2021/06/22 11:24:09;;;;;;;0.30;0.20;;;31.60;21.00;;;;;;4929455;29;20063;-84
2021/06/22 11:26:47;;;;;;;2.65;0.22;;;;;;;;;;4931430;29;20035;-85
2021/06/22 11:29:17;;;;;;;1.35;0.35;;;31.30;23.20;;;;;;4928303;29;20027;-85
2021/06/22 11:31:53;;;;;;;5.53;0.38;;;31.00;23.30;;;;;;4928718;28;20899;-85
2021/06/22 11:34:28;;;;;;;0.40;0.25;;;31.00;26.60;;;;;;4931253;29;20521;-84
2021/06/22 11:36:58;;;;;;;2.50;0.38;;;;;;;;;;4930928;29;20122;-85
2021/06/22 11:39:28;;;;;;;1.63;0.30;;;;;;;;;;4930336;29;20024;-85
2021/06/22 11:42:09;;;;;;;0.93;0.22;;;;;;;;;;4924698;29;20032;-85
2021/06/22 11:44:47;;;;;;;0.98;0.30;;;29.00;24.30;;;;;;4930470;29;20043;-88
2021/06/22 11:47:25;;;;;;;2.35;0.80;;;;;;;;;;4949972;29;20040;-92
2021/06/22 11:49:53;;;;;;;2.30;0.40;;;;;;;;;;4946336;29;20036;-90
2021/06/22 11:52:20;;;;;;;2.25;0.50;;;;;;;;;;4945736;29;20032;-90
2021/06/22 11:54:55;;;;;;;0.60;0.25;;;;;;;;;;4923858;29;20080;-90
2021/06/22 11:57:22;;;;;;;0.90;0.50;;;;;;;;;;4923985;29;20631;-93
2021/06/22 11:59:48;;;;;;;0.50;0.30;;;;;;;;;;4949562;29;20028;-90
2021/06/22 12:02:15;;;;;;;4.07;0.25;;;;;;;;;;4934557;29;20039;-85
2021/06/22 12:04:41;;;;;;;0.52;0.45;;;;;;;;;;4933944;29;20063;-90
2021/06/22 12:07:08;;;;;;;1.35;0.35;;;;;;;;;;4929831;29;20038;-86
2021/06/22 12:09:36;;;;;;;0.68;0.30;;;;;;;;;;4930603;29;20042;-89
2021/06/22 12:12:02;;;;;;;0.50;0.30;;;;;;;;;;4919192;28;20094;-88
2021/06/22 12:14:28;;;;;;;3.70;0.43;;;;;;;;;;4932696;29;20042;-89
2021/06/22 12:16:57;;;;;;;2.63;0.60;;;;;;;;;;4932784;29;20263;-87
2021/06/22 12:19:23;;;;;;;2.05;0.43;;;;;;;;;;4929831;29;20070;-88
2021/06/22 12:21:50;;;;;;;3.38;0.80;;;;;;;;;;4929587;29;20046;-87
2021/06/22 12:24:18;;;;;;;1.33;0.55;;;27.20;29.60;;;;;;4952821;29;20118;-86
2021/06/22 12:26:45;;;;;;;2.72;0.70;;;;;;;;;;4937544;29;20120;-91
2021/06/22 12:29:24;;;;;;;;;;;27.30;28.50;;;;;;4949515;29;20497;-89
2021/06/22 12:31:50;;;;;;;0.77;0.40;;;;;;;;;;4915785;29;19915;-88
2021/06/22 12:34:17;;;;;;;1.65;0.30;;;;;;;;;;4930868;29;20393;-92
2021/06/22 12:36:43;;;;;;;1.75;0.38;;;;;;;;;;4924013;29;20043;-92
2021/06/22 12:39:09;;;;;;;1.02;0.50;;;;;;;;;;4936995;28;20031;-90
2021/06/22 12:41:35;;;;;;;0.47;0.30;;;;;;;;;;4948927;29;20051;-91
2021/06/22 12:44:06;;;;;;;0.90;0.38;;;;;;;;;;4930152;29;20024;-89
2021/06/22 12:46:37;;;;;;;1.30;0.85;;;27.30;30.00;;;;;;4947512;28;20055;-90
2021/06/22 12:49:10;;;;;;;2.53;0.30;;;27.30;30.00;;;;;;4949350;29;20469;-92
2021/06/22 12:51:42;;;;;;;1.30;0.43;;;27.30;27.80;;;;;;4934507;29;20054;-87
2021/06/22 12:54:09;;;;;;;4.60;0.93;;;;;;;;;;4947068;29;20024;-89
2021/06/22 12:56:52;;;;;;;;;;;27.10;28.40;;;;;;4946556;29;20615;-87
2021/06/22 12:59:22;;;;;;;0.50;0.43;;;;;;;;;;4934089;29;19903;-88
2021/06/22 13:01:48;;;;;;;2.15;0.43;;;;;;;;;;4947396;29;20043;-91
2021/06/22 13:04:18;;;;;;;0.37;0.30;;;;;;;;;;4951188;29;20028;-87
2021/06/22 13:06:48;;;;;;;1.75;0.80;;;;;;;;;;4937471;29;20086;-88
2021/06/22 13:09:16;;;;;;;3.25;1.00;;;;;;;;;;4934988;29;20504;-89
2021/06/22 13:11:51;;;;;;;2.35;0.98;;;;;;;;;;4950080;29;20043;-93
2021/06/22 13:14:19;;;;;;;10.20;2.78;;;26.90;30.90;;;;;;4938068;29;20023;-92
2021/06/22 13:16:58;;;;;;;5.13;1.30;;;26.90;31.40;;;;;;4937038;29;20400;-92
2021/06/22 13:19:24;;;;;;;1.23;0.63;;;;;;;;;;4951031;28;20504;-89
2021/06/22 13:21:56;;;;;;;1.20;0.50;;;;;;;;;;4935579;29;20106;-88
2021/06/22 13:24:28;;;;;;;7.13;0.63;;;;;;;;;;4936542;29;20039;-90
2021/06/22 13:26:55;;;;;;;5.75;0.75;;;;;;;;;;4936901;29;20515;-91
2021/06/22 13:29:21;;;;;;;0.50;0.30;;;;;;;;;;4936815;29;20106;-92
2021/06/22 13:31:53;;;;;;;2.55;0.60;;;;;;;;;;4952093;29;20147;-92
2021/06/22 13:34:28;;;;;;;1.05;0.30;;;26.70;31.10;;;;;;4935702;29;20047;-90
2021/06/22 13:36:54;;;;;;;0.98;0.82;;;;;;;;;;4935832;29;20122;-91
2021/06/22 13:39:21;;;;;;;0.80;0.43;;;;;;;;;;4932607;29;20501;-92
2021/06/22 13:41:55;;;;;;;4.57;0.77;;;26.70;31.10;;;;;;4931310;29;20040;-89
2021/06/22 13:44:44;;;;;;;1.17;0.40;;;;;;;;;;4936496;29;20038;-90
2021/06/22 13:47:10;;;;;;;6.72;1.00;;;;;;;;;;4950236;29;21096;-91
2021/06/22 13:49:37;;;;;;;0.73;0.50;;;;;;;;;;4941775;29;20028;-91
2021/06/22 13:52:03;;;;;;;;;;;26.70;29.50;;;;;;4952137;29;20409;-90
2021/06/22 13:54:29;;;;;;;1.70;0.40;;;;;;;;;;4936625;29;19921;-89
2021/06/22 13:56:55;;;;;;;0.75;0.38;;;;;;;;;;4937385;29;20030;-90
2021/06/22 13:59:21;;;;;;;0.98;0.20;;;;;;;;;;4935310;29;20032;-86
2021/06/22 14:01:47;;;;;;;1.30;0.40;;;;;;;;;;4935176;29;20057;-87
2021/06/22 14:04:13;;;;;;;0.90;0.80;;;;;;;;;;4946157;28;20027;-87
2021/06/22 14:06:39;;;;;;;1.75;0.40;;;;;;;;;;4933300;29;20091;-87
2021/06/22 14:09:05;;;;;;;0.60;0.40;;;;;;;;;;4932945;29;20441;-87
2021/06/22 14:11:31;;;;;;;1.17;0.55;;;;;;;;;;4933490;29;20035;-88
2021/06/22 14:13:58;;;;;;;4.13;0.75;;;;;;;;;;4931085;29;20024;-87
2021/06/22 14:16:25;;;;;;;0.55;0.25;;;;;;;;;;4929459;29;20032;-86
2021/06/22 14:18:51;;;;;;;3.58;0.45;;;;;;;;;;4931717;29;20047;-86
2021/06/22 14:21:18;;;;;;;0.80;0.60;;;;;;;;;;4931726;29;20055;-86
2021/06/22 14:23:44;;;;;;;0.50;0.30;;;;;;;;;;4932744;29;20338;-86
2021/06/22 14:26:10;;;;;;;1.70;0.50;;;;;;;;;;4933677;29;20055;-86
2021/06/22 14:28:37;;;;;;;1.48;0.65;;;;;;;;;;4929681;29;20032;-86
2021/06/22 14:31:04;;;;;;;3.03;0.77;;;;;;;;;;4934259;29;20567;-87
2021/06/22 14:33:30;;;;;;;2.60;0.80;;;;;;;;;;4936623;29;20076;-90